Terminal Aerodrome Forecast
Issued by NWS

Home | Current Version | Previous Version | Text Only | Print | Product List | Glossary On
Versions: 1 2 3 4 5 6 7 8 9 10 11 12 13 14 15 16 17 18 19 20 21 22 23 24 25 26 27 28 29 30
000
FTUS45 KRIW 202320
TAFCPR
TAF
KCPR 202320Z 2100/2124 26018G27KT P6SM VCSH FEW060 SCT080
     FM210400 23022G32KT P6SM VCSH OVC070
     FM211400 24018G26KT P6SM BKN200
     FM211800 27015G25KT P6SM FEW080 SCT250=

USA.gov is the U.S. government's official web portal to all federal, state and local government web resources and services.